createdAt,value
2022-09-05T00:02:52.747Z,7.75
2022-09-05T00:06:01.783Z,6.10
2022-09-05T00:09:00.869Z,7.15
2022-09-05T00:11:52.013Z,5.85
2022-09-05T00:15:18.928Z,5.62
2022-09-05T00:19:22.897Z,6.82
2022-09-05T00:24:26.249Z,5.95
2022-09-05T00:25:30.341Z,8.13
2022-09-05T00:28:41.167Z,7.62
2022-09-05T00:31:58.282Z,6.45
2022-09-05T00:35:19.436Z,6.37
2022-09-05T00:38:18.512Z,5.70
2022-09-05T00:41:08.651Z,5.00
2022-09-05T00:43:56.715Z,7.35
2022-09-05T00:46:47.672Z,6.40
2022-09-05T00:52:41.474Z,5.70
2022-09-05T00:55:27.611Z,7.57
2022-09-05T00:58:35.137Z,8.27
2022-09-05T01:01:31.757Z,6.30
2022-09-05T01:04:32.712Z,6.72
2022-09-05T01:07:49.848Z,7.12
2022-09-05T01:10:58.263Z,5.47
2022-09-05T01:13:52.504Z,6.82
2022-09-05T01:16:45.216Z,7.68
2022-09-05T01:19:40.755Z,5.40
2022-09-05T01:22:51.366Z,6.18
2022-09-05T01:26:12.154Z,5.85
2022-09-05T01:29:18.566Z,6.28
2022-09-05T01:32:30.207Z,5.03
2022-09-05T01:36:03.399Z,6.53
2022-09-05T01:39:36.621Z,4.47
2022-09-05T01:42:31.726Z,6.82
2022-09-05T01:45:32.230Z,6.68
2022-09-05T01:48:47.714Z,6.28
2022-09-05T01:51:52.235Z,5.78
2022-09-05T01:55:00.629Z,7.30
2022-09-05T01:57:53.366Z,5.60
2022-09-05T02:00:44.481Z,6.62
2022-09-05T02:03:44.313Z,6.25
2022-09-05T02:06:51.838Z,4.72
2022-09-05T02:10:07.418Z,7.12
2022-09-05T02:13:13.020Z,5.68
2022-09-05T02:16:08.718Z,7.12
2022-09-05T02:18:57.778Z,6.50
2022-09-05T02:22:06.079Z,8.02
2022-09-05T02:26:00.761Z,6.25
2022-09-05T02:28:17.005Z,6.20
2022-09-05T02:31:19.460Z,6.32
2022-09-05T02:34:15.676Z,5.85
2022-09-05T02:37:16.308Z,7.53
2022-09-05T02:45:08.419Z,6.45
2022-09-05T02:45:21.236Z,7.40
2022-09-05T02:47:22.608Z,5.85
2022-09-05T02:57:41.946Z,6.75
2022-09-05T02:57:42.665Z,7.15
2022-09-05T03:00:06.010Z,8.55
2022-09-05T03:02:58.306Z,11.35
2022-09-05T03:06:01.087Z,6.68
2022-09-05T03:09:25.217Z,7.80
2022-09-05T03:12:44.932Z,6.72
2022-09-05T03:15:49.812Z,6.10
2022-09-05T03:18:58.326Z,6.93
2022-09-05T03:22:22.776Z,5.18
2022-09-05T03:25:24.685Z,5.78
2022-09-05T03:28:10.956Z,7.25
2022-09-05T03:31:22.100Z,7.03
2022-09-05T03:34:48.140Z,7.78
2022-09-05T03:38:10.377Z,9.00
2022-09-05T03:44:00.794Z,8.52
2022-09-05T03:47:02.134Z,6.82
2022-09-05T03:53:51.022Z,8.27
2022-09-05T03:57:15.449Z,5.82
2022-09-05T03:57:16.677Z,5.60
2022-09-05T04:00:20.951Z,7.10
2022-09-05T04:08:16.944Z,6.53
2022-09-05T04:08:18.375Z,6.15
2022-09-05T04:10:05.570Z,7.05
2022-09-05T04:16:00.463Z,6.97
2022-09-05T04:18:56.079Z,7.37
2022-09-05T04:21:50.025Z,6.07
2022-09-05T04:25:13.951Z,5.07
2022-09-05T04:28:28.475Z,5.28
2022-09-05T04:31:17.704Z,6.28
2022-09-05T04:34:36.288Z,5.30
2022-09-05T04:37:47.998Z,5.35
2022-09-05T04:40:46.943Z,7.22
2022-09-05T04:43:42.394Z,7.37
2022-09-05T04:46:32.904Z,6.37
2022-09-05T04:49:39.985Z,6.70
2022-09-05T04:52:49.483Z,7.50
2022-09-05T04:55:50.864Z,8.23
2022-09-05T05:00:24.418Z,8.75
2022-09-05T05:06:13.103Z,8.10
2022-09-05T05:06:15.943Z,6.62
2022-09-05T05:08:38.354Z,7.57
2022-09-05T05:16:38.364Z,8.20
2022-09-05T05:18:12.790Z,7.95
2022-09-05T05:18:40.967Z,5.55
2022-09-05T05:21:30.573Z,5.80
2022-09-05T05:24:22.106Z,6.53
2022-09-05T05:27:18.208Z,9.30
2022-09-05T05:30:07.865Z,6.85
2022-09-05T05:32:54.965Z,6.85
2022-09-05T05:35:48.292Z,6.82
2022-09-05T05:38:46.195Z,6.28
2022-09-05T05:41:45.007Z,8.20
2022-09-05T05:44:33.573Z,5.80
2022-09-05T05:47:31.415Z,5.90
2022-09-05T05:50:40.796Z,6.72
2022-09-05T05:53:52.222Z,8.05
2022-09-05T05:56:46.788Z,8.07
2022-09-05T06:00:01.434Z,9.15
2022-09-05T06:03:24.708Z,9.15
2022-09-05T06:06:26.614Z,9.13
2022-09-05T06:14:48.231Z,6.85
2022-09-05T06:14:55.327Z,9.05
2022-09-05T06:16:39.278Z,7.45
2022-09-05T06:21:12.757Z,6.20
2022-09-05T06:23:36.791Z,5.65
2022-09-05T06:26:49.399Z,6.15
2022-09-05T06:29:47.198Z,5.78
2022-09-05T06:32:41.780Z,9.38
2022-09-05T06:36:04.436Z,8.15
2022-09-05T06:39:11.206Z,6.18
2022-09-05T06:42:42.251Z,8.73
2022-09-05T06:45:58.572Z,6.40
2022-09-05T06:49:30.886Z,9.15
2022-09-05T06:52:44.103Z,10.13
2022-09-05T06:55:40.344Z,7.82
2022-09-05T06:59:09.462Z,9.75
2022-09-05T07:02:07.639Z,11.85
2022-09-05T07:05:37.721Z,9.25
2022-09-05T07:08:36.088Z,8.05
2022-09-05T07:11:36.589Z,9.30
2022-09-05T07:14:27.556Z,7.50
2022-09-05T07:17:18.249Z,7.97
2022-09-05T07:20:22.056Z,9.85
2022-09-05T07:24:06.234Z,6.03
2022-09-05T07:26:53.926Z,7.55
2022-09-05T07:29:53.316Z,8.40
2022-09-05T07:32:58.578Z,7.60
2022-09-05T07:35:45.166Z,6.75
2022-09-05T07:38:52.031Z,5.65
2022-09-05T07:41:42.096Z,6.65
2022-09-05T07:44:40.420Z,8.30
2022-09-05T07:47:30.273Z,5.43
2022-09-05T07:52:47.422Z,4.12
2022-09-05T07:57:01.705Z,3.22
2022-09-05T07:57:22.302Z,6.50
2022-09-05T08:02:50.255Z,6.03
2022-09-05T08:05:45.670Z,4.45
2022-09-05T08:09:00.424Z,4.12
2022-09-05T08:12:02.645Z,4.20
2022-09-05T08:15:10.234Z,3.50
2022-09-05T08:18:09.986Z,3.95
2022-09-05T08:21:27.167Z,4.12
2022-09-05T08:24:23.790Z,3.50
2022-09-05T08:27:20.639Z,3.97
2022-09-05T08:30:26.051Z,5.95
2022-09-05T08:33:17.529Z,5.95
2022-09-05T08:36:16.841Z,4.15
2022-09-05T08:39:04.894Z,6.00
2022-09-05T08:42:09.931Z,5.22
2022-09-05T08:46:36.346Z,3.65
2022-09-05T08:49:02.107Z,3.85
2022-09-05T08:52:14.045Z,3.58
2022-09-05T08:55:18.147Z,6.68
2022-09-05T08:58:27.138Z,4.50
2022-09-05T09:02:13.795Z,6.03
2022-09-05T09:05:01.157Z,6.22
2022-09-05T09:08:39.134Z,6.37
2022-09-05T09:11:36.620Z,5.10
2022-09-05T09:14:35.532Z,5.12
2022-09-05T09:17:42.968Z,3.60
2022-09-05T09:20:45.044Z,7.32
2022-09-05T09:23:51.420Z,4.93
2022-09-05T09:26:42.982Z,4.65
2022-09-05T09:29:34.463Z,5.37
2022-09-05T09:32:24.335Z,5.22
2022-09-05T09:35:17.369Z,6.70
2022-09-05T09:38:28.325Z,6.55
2022-09-05T09:41:17.252Z,7.03
2022-09-05T09:44:28.824Z,5.55
2022-09-05T09:47:22.280Z,8.07
2022-09-05T09:50:08.631Z,5.28
2022-09-05T09:53:05.518Z,5.32
2022-09-05T09:56:28.968Z,5.55
2022-09-05T09:59:49.678Z,4.60
2022-09-05T10:09:50.554Z,5.62
2022-09-05T10:10:35.081Z,5.30
2022-09-05T10:10:48.123Z,4.72
2022-09-05T10:13:51.745Z,6.12
2022-09-05T10:17:15.239Z,5.28
2022-09-05T10:20:24.045Z,4.50
2022-09-05T10:23:52.254Z,5.90
2022-09-05T10:26:53.762Z,4.47
2022-09-05T10:29:44.060Z,5.43
2022-09-05T10:35:07.572Z,5.35
2022-09-05T10:35:51.354Z,5.95
2022-09-05T10:38:43.254Z,6.50
2022-09-05T10:41:52.532Z,5.87
2022-09-05T10:44:45.709Z,4.95
2022-09-05T10:47:35.358Z,4.28
2022-09-05T10:50:30.432Z,5.82
2022-09-05T10:53:39.124Z,4.05
2022-09-05T10:56:34.235Z,5.43
2022-09-05T11:02:24.315Z,4.75
2022-09-05T11:02:43.870Z,4.40
2022-09-05T11:05:39.942Z,6.37
2022-09-05T11:09:06.428Z,4.57
2022-09-05T11:12:16.104Z,4.05
2022-09-05T11:15:08.827Z,4.93
2022-09-05T11:18:01.009Z,5.62
2022-09-05T11:21:20.024Z,4.80
2022-09-05T11:24:20.141Z,4.95
2022-09-05T11:27:40.507Z,4.78
2022-09-05T11:30:34.443Z,4.22
2022-09-05T11:39:51.928Z,4.53
2022-09-05T11:40:05.509Z,5.87
2022-09-05T11:40:29.053Z,4.60
2022-09-05T11:43:37.812Z,6.95
2022-09-05T11:46:34.276Z,8.57
2022-09-05T11:49:43.702Z,4.07
2022-09-05T11:52:55.650Z,3.60
2022-09-05T11:56:26.704Z,4.47
2022-09-05T11:59:34.961Z,3.95
2022-09-05T12:03:12.163Z,6.15
2022-09-05T12:06:57.217Z,4.03
2022-09-05T12:10:43.492Z,5.62
2022-09-05T12:13:35.871Z,4.85
2022-09-05T12:16:45.275Z,4.45
2022-09-05T12:19:41.865Z,5.55
2022-09-05T12:23:01.077Z,4.97
2022-09-05T12:27:41.163Z,5.10
2022-09-05T12:29:29.236Z,7.97
2022-09-05T12:33:58.037Z,8.77
2022-09-05T12:36:12.351Z,5.43
2022-09-05T12:40:28.808Z,6.78
2022-09-05T12:42:38.684Z,6.07
2022-09-05T12:48:53.265Z,4.72
2022-09-05T12:51:47.679Z,5.28
2022-09-05T12:54:42.018Z,6.62
2022-09-05T13:01:36.559Z,5.35
2022-09-05T13:03:01.186Z,4.78
2022-09-05T13:04:16.761Z,4.55
2022-09-05T13:07:10.779Z,3.75
2022-09-05T13:12:55.408Z,5.87
2022-09-05T13:15:01.415Z,7.90
2022-09-05T13:16:24.820Z,4.85
2022-09-05T13:19:21.568Z,5.28
2022-09-05T13:22:10.153Z,4.65
2022-09-05T13:25:13.127Z,6.12
2022-09-05T13:28:06.674Z,9.15
2022-09-05T13:34:12.692Z,5.53
2022-09-05T13:38:04.486Z,4.53
2022-09-05T13:38:14.752Z,5.57
2022-09-05T13:40:43.777Z,5.53
2022-09-05T13:43:36.487Z,8.15
2022-09-05T13:46:33.038Z,4.72
2022-09-05T13:49:32.183Z,5.55
2022-09-05T13:52:31.294Z,4.43
2022-09-05T13:56:00.507Z,4.60
2022-09-05T13:58:57.220Z,4.03
2022-09-05T14:02:25.815Z,6.30
2022-09-05T14:05:29.147Z,5.95
2022-09-05T14:08:18.079Z,5.18
2022-09-05T14:11:52.268Z,6.28
2022-09-05T14:18:28.016Z,5.03
2022-09-05T14:21:17.379Z,7.05
2022-09-05T14:24:16.986Z,7.10
2022-09-05T14:27:31.928Z,6.75
2022-09-05T14:35:23.474Z,4.40
2022-09-05T14:37:46.829Z,5.60
2022-09-05T14:37:53.651Z,3.53
2022-09-05T14:40:44.447Z,5.32
2022-09-05T14:43:33.872Z,9.43
2022-09-05T14:46:57.291Z,8.77
2022-09-05T14:50:06.142Z,4.87
2022-09-05T14:57:23.008Z,6.35
2022-09-05T15:02:54.992Z,5.03
2022-09-05T15:03:04.854Z,4.82
2022-09-05T15:05:51.640Z,4.30
2022-09-05T15:11:24.175Z,4.80
2022-09-05T15:12:23.843Z,6.50
2022-09-05T15:14:58.490Z,7.62
2022-09-05T15:17:49.013Z,7.10
2022-09-05T15:20:41.036Z,6.40
2022-09-05T15:23:27.278Z,4.68
2022-09-05T15:26:25.743Z,6.95
2022-09-05T15:29:14.717Z,4.55
2022-09-05T15:32:21.454Z,5.93
2022-09-05T15:35:07.936Z,3.75
2022-09-05T15:37:54.548Z,4.62
2022-09-05T15:40:40.762Z,5.18
2022-09-05T15:43:27.205Z,4.93
2022-09-05T15:46:13.669Z,7.60
2022-09-05T15:48:59.975Z,6.18
2022-09-05T15:51:49.767Z,6.37
2022-09-05T15:54:40.012Z,4.47
2022-09-05T15:57:28.897Z,4.43
2022-09-05T16:00:33.710Z,6.62
2022-09-05T16:05:44.747Z,4.45
2022-09-05T16:10:33.512Z,4.18
2022-09-05T16:10:50.281Z,4.90
2022-09-05T16:12:46.413Z,4.87
2022-09-05T16:22:36.230Z,4.93
2022-09-05T16:23:23.748Z,5.93
2022-09-05T16:23:35.082Z,5.55
2022-09-05T16:25:35.616Z,4.12
2022-09-05T16:28:28.548Z,5.75
2022-09-05T16:31:38.261Z,5.22
2022-09-05T16:34:44.234Z,6.90
2022-09-05T16:37:39.397Z,3.72
2022-09-05T16:40:35.954Z,4.30
2022-09-05T16:43:28.686Z,4.03
2022-09-05T16:46:30.602Z,6.62
2022-09-05T16:49:42.229Z,5.80
2022-09-05T16:52:53.655Z,4.70
2022-09-05T16:55:47.861Z,6.10
2022-09-05T16:58:40.434Z,5.53
2022-09-05T17:02:06.707Z,6.43
2022-09-05T17:05:13.384Z,7.45
2022-09-05T17:08:24.089Z,9.35
2022-09-05T17:11:29.900Z,6.80
2022-09-05T17:14:21.278Z,8.82
2022-09-05T17:17:36.508Z,9.52
2022-09-05T17:20:21.798Z,9.88
2022-09-05T17:29:20.234Z,8.10
2022-09-05T17:29:49.646Z,7.95
2022-09-05T17:33:40.308Z,6.85
2022-09-05T17:36:41.166Z,10.35
2022-09-05T17:39:58.658Z,15.68
2022-09-05T17:42:54.317Z,23.30
2022-09-05T17:45:45.680Z,18.25
2022-09-05T17:49:18.581Z,14.87
2022-09-05T17:52:18.201Z,12.18
2022-09-05T17:55:12.760Z,8.65
2022-09-05T17:58:21.803Z,12.10
2022-09-05T18:01:17.196Z,14.45
2022-09-05T18:04:16.557Z,12.27
2022-09-05T18:07:31.338Z,12.63
2022-09-05T18:10:27.598Z,8.70
2022-09-05T18:13:32.530Z,8.13
2022-09-05T18:16:43.793Z,9.63
2022-09-05T18:19:49.422Z,10.50
2022-09-05T18:23:26.394Z,10.48
2022-09-05T18:26:20.944Z,9.23
2022-09-05T18:29:58.428Z,11.95
2022-09-05T18:32:54.692Z,8.65
2022-09-05T18:35:57.884Z,9.02
2022-09-05T18:38:51.674Z,8.30
2022-09-05T18:41:41.815Z,9.77
2022-09-05T18:44:31.863Z,9.77
2022-09-05T18:47:33.748Z,10.38
2022-09-05T18:50:27.928Z,8.10
2022-09-05T18:53:25.385Z,8.38
2022-09-05T18:57:19.863Z,8.07
2022-09-05T19:00:03.573Z,9.05
2022-09-05T19:02:58.893Z,10.13
2022-09-05T19:06:34.984Z,8.18
2022-09-05T19:09:09.860Z,7.62
2022-09-05T19:12:33.518Z,9.27
2022-09-05T19:15:26.251Z,12.95
2022-09-05T19:18:40.537Z,7.82
2022-09-05T19:21:47.407Z,8.80
2022-09-05T19:24:46.321Z,7.03
2022-09-05T19:29:39.076Z,9.35
2022-09-05T19:36:49.567Z,9.18
2022-09-05T19:37:15.102Z,6.10
2022-09-05T19:44:00.505Z,7.30
2022-09-05T19:50:28.575Z,6.78
2022-09-05T19:53:18.036Z,7.80
2022-09-05T19:56:05.156Z,6.45
2022-09-05T19:58:52.692Z,6.87
2022-09-05T20:01:43.146Z,7.30
2022-09-05T20:04:38.853Z,5.62
2022-09-05T20:07:27.818Z,7.90
2022-09-05T20:10:28.185Z,7.37
2022-09-05T20:13:21.942Z,7.75
2022-09-05T20:16:11.264Z,6.22
2022-09-05T20:18:57.759Z,7.28
2022-09-05T20:25:37.103Z,7.43
2022-09-05T20:28:37.954Z,6.78
2022-09-05T20:31:27.393Z,8.52
2022-09-05T20:34:36.966Z,14.93
2022-09-05T20:43:10.916Z,7.62
2022-09-05T20:43:24.420Z,5.62
2022-09-05T20:43:58.043Z,7.87
2022-09-05T20:52:57.206Z,7.93
2022-09-05T20:54:14.531Z,5.97
2022-09-05T20:54:20.750Z,5.75
2022-09-05T20:56:56.344Z,5.78
2022-09-05T20:59:43.327Z,8.20
2022-09-05T21:02:33.124Z,6.03
2022-09-05T21:05:27.722Z,6.55
2022-09-05T21:08:23.998Z,6.70
2022-09-05T21:11:10.623Z,9.15
2022-09-05T21:14:00.790Z,8.05
2022-09-05T21:16:57.635Z,7.45
2022-09-05T21:19:53.200Z,6.30
2022-09-05T21:22:43.654Z,6.18
2022-09-05T21:25:44.020Z,6.78
2022-09-05T21:28:37.087Z,7.12
2022-09-05T21:31:25.709Z,7.45
2022-09-05T21:34:16.210Z,8.45
2022-09-05T21:37:07.683Z,8.52
2022-09-05T21:39:58.760Z,10.05
2022-09-05T21:47:34.912Z,9.13
2022-09-05T21:47:47.587Z,10.95
2022-09-05T21:49:07.709Z,8.98
2022-09-05T21:59:18.297Z,8.07
2022-09-05T21:59:19.732Z,8.48
2022-09-05T22:00:56.148Z,9.10
2022-09-05T22:03:44.619Z,7.72
2022-09-05T22:06:31.474Z,7.55
2022-09-05T22:09:19.927Z,6.97
2022-09-05T22:12:17.491Z,9.27
2022-09-05T22:15:28.153Z,8.75
2022-09-05T22:18:26.999Z,7.25
2022-09-05T22:21:32.239Z,13.20
2022-09-05T22:24:21.853Z,6.68
2022-09-05T22:27:12.738Z,6.62
2022-09-05T22:29:59.145Z,8.77
2022-09-05T22:32:45.587Z,7.07
2022-09-05T22:35:36.852Z,10.60
2022-09-05T22:41:12.990Z,5.97
2022-09-05T22:44:00.609Z,6.78
2022-09-05T22:46:47.030Z,7.53
2022-09-05T22:49:34.177Z,7.53
2022-09-05T22:52:20.544Z,8.38
2022-09-05T22:55:07.396Z,7.50
2022-09-05T22:57:53.653Z,7.50
2022-09-05T23:00:41.684Z,6.40
2022-09-05T23:03:27.857Z,7.57
2022-09-05T23:06:14.237Z,5.10
2022-09-05T23:09:00.675Z,6.22
2022-09-05T23:11:47.029Z,6.30
2022-09-05T23:14:33.241Z,7.05
2022-09-05T23:17:19.694Z,6.47
2022-09-05T23:20:06.632Z,7.87
2022-09-05T23:22:52.842Z,6.28
2022-09-05T23:25:39.178Z,7.97
2022-09-05T23:28:25.586Z,7.18
2022-09-05T23:31:12.294Z,5.87
2022-09-05T23:33:58.956Z,5.90
2022-09-05T23:36:45.183Z,7.07
2022-09-05T23:39:31.610Z,4.32
2022-09-05T23:42:17.954Z,4.62
2022-09-05T23:45:04.460Z,6.90
2022-09-05T23:47:51.058Z,7.87
2022-09-05T23:50:37.910Z,5.72
2022-09-05T23:53:24.335Z,4.35
2022-09-05T23:56:11.192Z,6.80
2022-09-05T23:58:57.157Z,8.30
